sensor_id;sensor_type;location;lat;lon;timestamp;temperature;humidity
8780;DHT22;62328;51.19929245;4.42130175;2022-12-08T00:01:26;6.20;99.90
8780;DHT22;62328;51.19929245;4.42130175;2022-12-08T00:03:53;6.20;99.90
8780;DHT22;62328;51.19929245;4.42130175;2022-12-08T00:06:24;6.30;99.90
8780;DHT22;62328;51.19929245;4.42130175;2022-12-08T00:09:14;6.20;99.90
8780;DHT22;62328;51.19929245;4.42130175;2022-12-08T00:11:52;6.20;99.90
8780;DHT22;62328;51.19929245;4.42130175;2022-12-08T00:14:21;6.20;99.90
8780;DHT22;62328;51.19929245;4.42130175;2022-12-08T00:16:50;6.20;99.90
8780;DHT22;62328;51.19929245;4.42130175;2022-12-08T00:19:16;6.20;99.90
8780;DHT22;62328;51.19929245;4.42130175;2022-12-08T00:21:44;6.20;99.90
8780;DHT22;62328;51.19929245;4.42130175;2022-12-08T00:24:11;6.20;99.90
8780;DHT22;62328;51.19929245;4.42130175;2022-12-08T00:26:38;6.20;99.90
8780;DHT22;62328;51.19929245;4.42130175;2022-12-08T00:29:05;6.20;99.90
8780;DHT22;62328;51.19929245;4.42130175;2022-12-08T00:31:32;6.20;99.90
8780;DHT22;62328;51.19929245;4.42130175;2022-12-08T00:34:01;6.20;99.90
8780;DHT22;62328;51.19929245;4.42130175;2022-12-08T00:36:28;6.20;99.90
8780;DHT22;62328;51.19929245;4.42130175;2022-12-08T00:38:55;6.20;99.90
8780;DHT22;62328;51.19929245;4.42130175;2022-12-08T00:41:24;6.20;99.90
8780;DHT22;62328;51.19929245;4.42130175;2022-12-08T00:44:05;6.10;99.90
8780;DHT22;62328;51.19929245;4.42130175;2022-12-08T00:46:32;6.10;99.90
8780;DHT22;62328;51.19929245;4.42130175;2022-12-08T00:49:01;6.20;99.90
8780;DHT22;62328;51.19929245;4.42130175;2022-12-08T00:51:28;6.20;99.90
8780;DHT22;62328;51.19929245;4.42130175;2022-12-08T00:53:54;6.10;99.90
8780;DHT22;62328;51.19929245;4.42130175;2022-12-08T00:56:22;6.10;99.90
8780;DHT22;62328;51.19929245;4.42130175;2022-12-08T00:58:48;6.10;99.90
8780;DHT22;62328;51.19929245;4.42130175;2022-12-08T01:01:16;6.10;99.90
8780;DHT22;62328;51.19929245;4.42130175;2022-12-08T01:03:43;6.10;99.90
8780;DHT22;62328;51.19929245;4.42130175;2022-12-08T01:06:11;6.10;99.90
8780;DHT22;62328;51.19929245;4.42130175;2022-12-08T01:08:39;6.00;99.90
8780;DHT22;62328;51.19929245;4.42130175;2022-12-08T01:11:08;6.00;99.90
8780;DHT22;62328;51.19929245;4.42130175;2022-12-08T01:13:36;6.00;99.90
8780;DHT22;62328;51.19929245;4.42130175;2022-12-08T01:16:03;5.90;99.90
8780;DHT22;62328;51.19929245;4.42130175;2022-12-08T01:18:31;5.90;99.90
8780;DHT22;62328;51.19929245;4.42130175;2022-12-08T01:21:01;5.90;99.90
8780;DHT22;62328;51.19929245;4.42130175;2022-12-08T01:23:30;5.90;99.90
8780;DHT22;62328;51.19929245;4.42130175;2022-12-08T01:26:01;5.90;99.90
8780;DHT22;62328;51.19929245;4.42130175;2022-12-08T01:28:29;5.90;99.90
8780;DHT22;62328;51.19929245;4.42130175;2022-12-08T01:30:57;5.90;99.90
8780;DHT22;62328;51.19929245;4.42130175;2022-12-08T01:33:25;5.90;99.90
8780;DHT22;62328;51.19929245;4.42130175;2022-12-08T01:35:52;5.90;99.90
8780;DHT22;62328;51.19929245;4.42130175;2022-12-08T01:38:20;5.90;99.90
8780;DHT22;62328;51.19929245;4.42130175;2022-12-08T01:40:48;5.90;99.90
8780;DHT22;62328;51.19929245;4.42130175;2022-12-08T01:43:16;5.90;99.90
8780;DHT22;62328;51.19929245;4.42130175;2022-12-08T01:45:44;5.80;99.90
8780;DHT22;62328;51.19929245;4.42130175;2022-12-08T01:48:15;5.80;99.90
8780;DHT22;62328;51.19929245;4.42130175;2022-12-08T01:50:45;5.90;99.90
8780;DHT22;62328;51.19929245;4.42130175;2022-12-08T01:53:15;5.80;99.90
8780;DHT22;62328;51.19929245;4.42130175;2022-12-08T01:55:45;5.80;99.90
8780;DHT22;62328;51.19929245;4.42130175;2022-12-08T01:58:18;5.80;99.90
8780;DHT22;62328;51.19929245;4.42130175;2022-12-08T02:00:47;5.80;99.90
8780;DHT22;62328;51.19929245;4.42130175;2022-12-08T02:03:19;5.70;99.90
8780;DHT22;62328;51.19929245;4.42130175;2022-12-08T02:05:48;5.80;99.90
8780;DHT22;62328;51.19929245;4.42130175;2022-12-08T02:08:15;5.80;99.90
8780;DHT22;62328;51.19929245;4.42130175;2022-12-08T02:10:42;5.70;99.90
8780;DHT22;62328;51.19929245;4.42130175;2022-12-08T02:13:12;5.80;99.90
8780;DHT22;62328;51.19929245;4.42130175;2022-12-08T02:15:52;5.70;99.90
8780;DHT22;62328;51.19929245;4.42130175;2022-12-08T02:18:34;5.80;99.90
8780;DHT22;62328;51.19929245;4.42130175;2022-12-08T02:21:08;5.80;99.90
8780;DHT22;62328;51.19929245;4.42130175;2022-12-08T02:23:43;5.80;99.90
8780;DHT22;62328;51.19929245;4.42130175;2022-12-08T02:26:43;5.80;99.90
8780;DHT22;62328;51.19929245;4.42130175;2022-12-08T02:29:46;5.90;99.90
8780;DHT22;62328;51.19929245;4.42130175;2022-12-08T02:35:25;5.80;99.90
8780;DHT22;62328;51.19929245;4.42130175;2022-12-08T02:38:05;5.80;99.90
8780;DHT22;62328;51.19929245;4.42130175;2022-12-08T02:40:36;5.70;99.90
8780;DHT22;62328;51.19929245;4.42130175;2022-12-08T02:43:08;5.70;99.90
8780;DHT22;62328;51.19929245;4.42130175;2022-12-08T02:45:42;5.70;99.90
8780;DHT22;62328;51.19929245;4.42130175;2022-12-08T02:48:11;5.70;99.90
8780;DHT22;62328;51.19929245;4.42130175;2022-12-08T02:50:39;5.60;99.90
8780;DHT22;62328;51.19929245;4.42130175;2022-12-08T02:53:07;5.60;99.90
8780;DHT22;62328;51.19929245;4.42130175;2022-12-08T02:55:43;5.60;99.90
8780;DHT22;62328;51.19929245;4.42130175;2022-12-08T02:58:31;5.60;99.90
8780;DHT22;62328;51.19929245;4.42130175;2022-12-08T03:01:11;5.60;99.90
8780;DHT22;62328;51.19929245;4.42130175;2022-12-08T03:03:52;5.60;99.90
8780;DHT22;62328;51.19929245;4.42130175;2022-12-08T03:06:29;5.60;99.90
8780;DHT22;62328;51.19929245;4.42130175;2022-12-08T03:08:59;5.60;99.90
8780;DHT22;62328;51.19929245;4.42130175;2022-12-08T03:11:33;5.60;99.90
8780;DHT22;62328;51.19929245;4.42130175;2022-12-08T03:14:04;5.60;99.90
8780;DHT22;62328;51.19929245;4.42130175;2022-12-08T03:16:34;5.60;99.90
8780;DHT22;62328;51.19929245;4.42130175;2022-12-08T03:19:07;5.60;99.90
8780;DHT22;62328;51.19929245;4.42130175;2022-12-08T03:21:37;5.60;99.90
8780;DHT22;62328;51.19929245;4.42130175;2022-12-08T03:24:06;5.70;99.90
8780;DHT22;62328;51.19929245;4.42130175;2022-12-08T03:26:42;5.70;99.90
8780;DHT22;62328;51.19929245;4.42130175;2022-12-08T03:29:11;5.70;99.90
8780;DHT22;62328;51.19929245;4.42130175;2022-12-08T03:31:46;5.80;99.90
8780;DHT22;62328;51.19929245;4.42130175;2022-12-08T03:34:16;5.80;99.90
8780;DHT22;62328;51.19929245;4.42130175;2022-12-08T03:36:45;5.80;99.90
8780;DHT22;62328;51.19929245;4.42130175;2022-12-08T03:39:13;5.80;99.90
8780;DHT22;62328;51.19929245;4.42130175;2022-12-08T03:41:40;5.80;99.90
8780;DHT22;62328;51.19929245;4.42130175;2022-12-08T03:44:07;5.80;99.90
8780;DHT22;62328;51.19929245;4.42130175;2022-12-08T03:46:33;5.70;99.90
8780;DHT22;62328;51.19929245;4.42130175;2022-12-08T03:49:00;5.70;99.90
8780;DHT22;62328;51.19929245;4.42130175;2022-12-08T03:51:27;5.70;99.90
8780;DHT22;62328;51.19929245;4.42130175;2022-12-08T03:53:55;5.80;99.90
8780;DHT22;62328;51.19929245;4.42130175;2022-12-08T03:56:26;5.70;99.90
8780;DHT22;62328;51.19929245;4.42130175;2022-12-08T03:58:54;5.60;99.90
8780;DHT22;62328;51.19929245;4.42130175;2022-12-08T04:01:21;5.60;99.90
8780;DHT22;62328;51.19929245;4.42130175;2022-12-08T04:03:49;5.60;99.90
8780;DHT22;62328;51.19929245;4.42130175;2022-12-08T04:06:16;5.50;99.90
8780;DHT22;62328;51.19929245;4.42130175;2022-12-08T04:08:43;5.60;99.90
8780;DHT22;62328;51.19929245;4.42130175;2022-12-08T04:11:11;5.60;99.90
8780;DHT22;62328;51.19929245;4.42130175;2022-12-08T04:13:41;5.70;99.90
8780;DHT22;62328;51.19929245;4.42130175;2022-12-08T04:16:14;5.70;99.90
8780;DHT22;62328;51.19929245;4.42130175;2022-12-08T04:18:41;5.70;99.90
8780;DHT22;62328;51.19929245;4.42130175;2022-12-08T04:21:08;5.70;99.90
8780;DHT22;62328;51.19929245;4.42130175;2022-12-08T04:23:35;5.70;99.90
8780;DHT22;62328;51.19929245;4.42130175;2022-12-08T04:26:02;5.70;99.90
8780;DHT22;62328;51.19929245;4.42130175;2022-12-08T04:28:30;5.70;99.90
8780;DHT22;62328;51.19929245;4.42130175;2022-12-08T04:30:57;5.70;99.90
8780;DHT22;62328;51.19929245;4.42130175;2022-12-08T04:33:24;5.70;99.90
8780;DHT22;62328;51.19929245;4.42130175;2022-12-08T04:35:51;5.80;99.90
8780;DHT22;62328;51.19929245;4.42130175;2022-12-08T04:38:18;5.80;99.90
8780;DHT22;62328;51.19929245;4.42130175;2022-12-08T04:40:45;5.70;99.90
8780;DHT22;62328;51.19929245;4.42130175;2022-12-08T04:43:12;5.80;99.90
8780;DHT22;62328;51.19929245;4.42130175;2022-12-08T04:45:40;5.80;99.90
8780;DHT22;62328;51.19929245;4.42130175;2022-12-08T04:48:08;5.80;99.90
8780;DHT22;62328;51.19929245;4.42130175;2022-12-08T04:50:38;5.80;99.90
8780;DHT22;62328;51.19929245;4.42130175;2022-12-08T04:53:05;5.80;99.90
8780;DHT22;62328;51.19929245;4.42130175;2022-12-08T04:55:33;5.90;99.90
8780;DHT22;62328;51.19929245;4.42130175;2022-12-08T04:57:59;5.80;99.90
8780;DHT22;62328;51.19929245;4.42130175;2022-12-08T05:00:26;5.80;99.90
8780;DHT22;62328;51.19929245;4.42130175;2022-12-08T05:02:54;5.80;99.90
8780;DHT22;62328;51.19929245;4.42130175;2022-12-08T05:05:21;5.80;99.90
8780;DHT22;62328;51.19929245;4.42130175;2022-12-08T05:07:48;5.80;99.90
8780;DHT22;62328;51.19929245;4.42130175;2022-12-08T05:10:15;5.90;99.90
8780;DHT22;62328;51.19929245;4.42130175;2022-12-08T05:12:42;5.90;99.90
8780;DHT22;62328;51.19929245;4.42130175;2022-12-08T05:15:09;5.90;99.90
8780;DHT22;62328;51.19929245;4.42130175;2022-12-08T05:17:36;5.90;99.90
8780;DHT22;62328;51.19929245;4.42130175;2022-12-08T05:20:06;5.80;99.90
8780;DHT22;62328;51.19929245;4.42130175;2022-12-08T05:22:33;5.90;99.90
8780;DHT22;62328;51.19929245;4.42130175;2022-12-08T05:24:59;5.80;99.90
8780;DHT22;62328;51.19929245;4.42130175;2022-12-08T05:27:26;5.80;99.90
8780;DHT22;62328;51.19929245;4.42130175;2022-12-08T05:29:53;5.80;99.90
8780;DHT22;62328;51.19929245;4.42130175;2022-12-08T05:32:20;5.80;99.90
8780;DHT22;62328;51.19929245;4.42130175;2022-12-08T05:34:47;5.80;99.90
8780;DHT22;62328;51.19929245;4.42130175;2022-12-08T05:37:15;5.70;99.90
8780;DHT22;62328;51.19929245;4.42130175;2022-12-08T05:39:42;5.70;99.90
8780;DHT22;62328;51.19929245;4.42130175;2022-12-08T05:42:09;5.70;99.90
8780;DHT22;62328;51.19929245;4.42130175;2022-12-08T05:44:36;5.70;99.90
8780;DHT22;62328;51.19929245;4.42130175;2022-12-08T05:47:03;5.60;99.90
8780;DHT22;62328;51.19929245;4.42130175;2022-12-08T05:49:30;5.70;99.90
8780;DHT22;62328;51.19929245;4.42130175;2022-12-08T05:51:57;5.70;99.90
8780;DHT22;62328;51.19929245;4.42130175;2022-12-08T05:54:25;5.70;99.90
8780;DHT22;62328;51.19929245;4.42130175;2022-12-08T05:56:53;5.70;99.90
8780;DHT22;62328;51.19929245;4.42130175;2022-12-08T05:59:20;5.70;99.90
8780;DHT22;62328;51.19929245;4.42130175;2022-12-08T06:01:47;5.70;99.90
8780;DHT22;62328;51.19929245;4.42130175;2022-12-08T06:04:14;5.60;99.90
8780;DHT22;62328;51.19929245;4.42130175;2022-12-08T06:06:41;5.60;99.90
8780;DHT22;62328;51.19929245;4.42130175;2022-12-08T06:09:09;5.60;99.90
8780;DHT22;62328;51.19929245;4.42130175;2022-12-08T06:11:38;5.50;99.90
8780;DHT22;62328;51.19929245;4.42130175;2022-12-08T06:14:09;5.50;99.90
8780;DHT22;62328;51.19929245;4.42130175;2022-12-08T06:16:36;5.40;99.90
8780;DHT22;62328;51.19929245;4.42130175;2022-12-08T06:19:03;5.40;99.90
8780;DHT22;62328;51.19929245;4.42130175;2022-12-08T06:21:30;5.40;99.90
8780;DHT22;62328;51.19929245;4.42130175;2022-12-08T06:23:58;5.30;99.90
8780;DHT22;62328;51.19929245;4.42130175;2022-12-08T06:26:25;5.30;99.90
8780;DHT22;62328;51.19929245;4.42130175;2022-12-08T06:28:53;5.30;99.90
8780;DHT22;62328;51.19929245;4.42130175;2022-12-08T06:31:22;5.30;99.90
8780;DHT22;62328;51.19929245;4.42130175;2022-12-08T06:33:50;5.30;99.90
8780;DHT22;62328;51.19929245;4.42130175;2022-12-08T06:36:20;5.30;99.90
8780;DHT22;62328;51.19929245;4.42130175;2022-12-08T06:38:47;5.30;99.90
8780;DHT22;62328;51.19929245;4.42130175;2022-12-08T06:41:15;5.30;99.90
8780;DHT22;62328;51.19929245;4.42130175;2022-12-08T06:43:43;5.30;99.90
8780;DHT22;62328;51.19929245;4.42130175;2022-12-08T06:46:14;5.30;99.90
8780;DHT22;62328;51.19929245;4.42130175;2022-12-08T06:48:41;5.30;99.90
8780;DHT22;62328;51.19929245;4.42130175;2022-12-08T06:51:10;5.30;99.90
8780;DHT22;62328;51.19929245;4.42130175;2022-12-08T06:53:40;5.30;99.90
8780;DHT22;62328;51.19929245;4.42130175;2022-12-08T06:56:08;5.10;99.90
8780;DHT22;62328;51.19929245;4.42130175;2022-12-08T06:58:35;5.30;99.90
8780;DHT22;62328;51.19929245;4.42130175;2022-12-08T07:01:06;5.30;99.90
8780;DHT22;62328;51.19929245;4.42130175;2022-12-08T07:03:39;5.30;99.90
8780;DHT22;62328;51.19929245;4.42130175;2022-12-08T07:06:13;5.30;99.90
8780;DHT22;62328;51.19929245;4.42130175;2022-12-08T07:08:41;5.30;99.90
8780;DHT22;62328;51.19929245;4.42130175;2022-12-08T07:11:08;5.20;99.90
8780;DHT22;62328;51.19929245;4.42130175;2022-12-08T07:13:36;5.20;99.90
8780;DHT22;62328;51.19929245;4.42130175;2022-12-08T07:16:08;5.20;99.90
8780;DHT22;62328;51.19929245;4.42130175;2022-12-08T07:18:41;5.20;99.90
8780;DHT22;62328;51.19929245;4.42130175;2022-12-08T07:21:12;5.20;99.90
8780;DHT22;62328;51.19929245;4.42130175;2022-12-08T07:23:40;5.20;99.90
8780;DHT22;62328;51.19929245;4.42130175;2022-12-08T07:26:10;5.20;99.90
8780;DHT22;62328;51.19929245;4.42130175;2022-12-08T07:28:42;5.30;99.90
8780;DHT22;62328;51.19929245;4.42130175;2022-12-08T07:31:21;5.30;99.90
8780;DHT22;62328;51.19929245;4.42130175;2022-12-08T07:34:04;5.20;99.90
8780;DHT22;62328;51.19929245;4.42130175;2022-12-08T07:36:39;5.30;99.90
8780;DHT22;62328;51.19929245;4.42130175;2022-12-08T07:39:07;5.30;99.90
8780;DHT22;62328;51.19929245;4.42130175;2022-12-08T07:41:34;5.20;99.90
8780;DHT22;62328;51.19929245;4.42130175;2022-12-08T07:44:01;5.30;99.90
8780;DHT22;62328;51.19929245;4.42130175;2022-12-08T07:46:33;5.30;99.90
8780;DHT22;62328;51.19929245;4.42130175;2022-12-08T07:49:00;5.40;99.90
8780;DHT22;62328;51.19929245;4.42130175;2022-12-08T07:51:38;5.30;99.90
8780;DHT22;62328;51.19929245;4.42130175;2022-12-08T07:54:05;5.30;99.90
8780;DHT22;62328;51.19929245;4.42130175;2022-12-08T07:56:32;5.30;99.90
8780;DHT22;62328;51.19929245;4.42130175;2022-12-08T07:59:01;5.30;99.90
8780;DHT22;62328;51.19929245;4.42130175;2022-12-08T08:01:31;5.30;99.90
8780;DHT22;62328;51.19929245;4.42130175;2022-12-08T08:04:01;5.30;99.90
8780;DHT22;62328;51.19929245;4.42130175;2022-12-08T08:06:31;5.30;99.90
8780;DHT22;62328;51.19929245;4.42130175;2022-12-08T08:08:58;5.30;99.90
8780;DHT22;62328;51.19929245;4.42130175;2022-12-08T08:11:26;5.30;99.90
8780;DHT22;62328;51.19929245;4.42130175;2022-12-08T08:13:54;5.30;99.90
8780;DHT22;62328;51.19929245;4.42130175;2022-12-08T08:16:21;5.30;99.90
8780;DHT22;62328;51.19929245;4.42130175;2022-12-08T08:18:49;5.30;99.90
8780;DHT22;62328;51.19929245;4.42130175;2022-12-08T08:21:17;5.40;99.90
8780;DHT22;62328;51.19929245;4.42130175;2022-12-08T08:23:45;5.30;99.90
8780;DHT22;62328;51.19929245;4.42130175;2022-12-08T08:26:12;5.40;99.90
8780;DHT22;62328;51.19929245;4.42130175;2022-12-08T08:28:39;5.40;99.90
8780;DHT22;62328;51.19929245;4.42130175;2022-12-08T08:31:06;5.50;99.90
8780;DHT22;62328;51.19929245;4.42130175;2022-12-08T08:33:33;5.40;99.90
8780;DHT22;62328;51.19929245;4.42130175;2022-12-08T08:36:00;5.40;99.90
8780;DHT22;62328;51.19929245;4.42130175;2022-12-08T08:38:31;5.40;99.90
8780;DHT22;62328;51.19929245;4.42130175;2022-12-08T08:41:06;5.40;99.90
8780;DHT22;62328;51.19929245;4.42130175;2022-12-08T08:43:33;5.40;99.90
8780;DHT22;62328;51.19929245;4.42130175;2022-12-08T08:46:01;5.40;99.90
8780;DHT22;62328;51.19929245;4.42130175;2022-12-08T08:48:29;5.40;99.90
8780;DHT22;62328;51.19929245;4.42130175;2022-12-08T08:50:57;5.40;99.90
8780;DHT22;62328;51.19929245;4.42130175;2022-12-08T08:53:24;5.40;99.90
8780;DHT22;62328;51.19929245;4.42130175;2022-12-08T08:55:51;5.30;99.90
8780;DHT22;62328;51.19929245;4.42130175;2022-12-08T08:58:19;5.40;99.90
8780;DHT22;62328;51.19929245;4.42130175;2022-12-08T09:00:46;5.40;99.90
8780;DHT22;62328;51.19929245;4.42130175;2022-12-08T09:03:13;5.40;99.90
8780;DHT22;62328;51.19929245;4.42130175;2022-12-08T09:05:40;5.30;99.90
8780;DHT22;62328;51.19929245;4.42130175;2022-12-08T09:08:07;5.40;99.90
8780;DHT22;62328;51.19929245;4.42130175;2022-12-08T09:10:34;5.40;99.90
8780;DHT22;62328;51.19929245;4.42130175;2022-12-08T09:13:01;5.30;99.90
8780;DHT22;62328;51.19929245;4.42130175;2022-12-08T09:15:29;5.40;99.90
8780;DHT22;62328;51.19929245;4.42130175;2022-12-08T09:17:56;5.30;99.90
8780;DHT22;62328;51.19929245;4.42130175;2022-12-08T09:20:23;5.40;99.90
8780;DHT22;62328;51.19929245;4.42130175;2022-12-08T09:22:50;5.40;99.90
8780;DHT22;62328;51.19929245;4.42130175;2022-12-08T09:25:17;5.40;99.90
8780;DHT22;62328;51.19929245;4.42130175;2022-12-08T09:27:44;5.40;99.90
8780;DHT22;62328;51.19929245;4.42130175;2022-12-08T09:30:11;5.50;99.90
8780;DHT22;62328;51.19929245;4.42130175;2022-12-08T09:32:40;5.40;99.90
8780;DHT22;62328;51.19929245;4.42130175;2022-12-08T09:35:07;5.50;99.90
8780;DHT22;62328;51.19929245;4.42130175;2022-12-08T09:37:34;5.60;99.90
8780;DHT22;62328;51.19929245;4.42130175;2022-12-08T09:40:01;5.70;99.90
8780;DHT22;62328;51.19929245;4.42130175;2022-12-08T09:42:34;5.70;99.90
8780;DHT22;62328;51.19929245;4.42130175;2022-12-08T09:45:06;5.70;99.90
8780;DHT22;62328;51.19929245;4.42130175;2022-12-08T09:47:37;5.70;99.90
8780;DHT22;62328;51.19929245;4.42130175;2022-12-08T09:50:11;5.60;99.90
8780;DHT22;62328;51.19929245;4.42130175;2022-12-08T09:52:43;5.70;99.90
8780;DHT22;62328;51.19929245;4.42130175;2022-12-08T09:55:18;5.70;99.90
8780;DHT22;62328;51.19929245;4.42130175;2022-12-08T09:57:56;5.80;99.90
8780;DHT22;62328;51.19929245;4.42130175;2022-12-08T10:00:24;5.80;99.90
8780;DHT22;62328;51.19929245;4.42130175;2022-12-08T10:02:51;5.90;99.90
8780;DHT22;62328;51.19929245;4.42130175;2022-12-08T10:05:20;5.90;99.90
8780;DHT22;62328;51.19929245;4.42130175;2022-12-08T10:07:55;6.00;99.90
8780;DHT22;62328;51.19929245;4.42130175;2022-12-08T10:10:32;6.10;99.90
8780;DHT22;62328;51.19929245;4.42130175;2022-12-08T10:13:10;6.10;99.90
8780;DHT22;62328;51.19929245;4.42130175;2022-12-08T10:15:46;6.20;99.90
8780;DHT22;62328;51.19929245;4.42130175;2022-12-08T10:18:16;6.40;99.90
8780;DHT22;62328;51.19929245;4.42130175;2022-12-08T10:20:48;6.50;99.90
8780;DHT22;62328;51.19929245;4.42130175;2022-12-08T10:23:25;6.50;99.90
8780;DHT22;62328;51.19929245;4.42130175;2022-12-08T10:25:59;6.50;99.90
8780;DHT22;62328;51.19929245;4.42130175;2022-12-08T10:28:27;6.50;99.90
8780;DHT22;62328;51.19929245;4.42130175;2022-12-08T10:30:54;6.40;99.90
8780;DHT22;62328;51.19929245;4.42130175;2022-12-08T10:33:21;6.40;99.90
8780;DHT22;62328;51.19929245;4.42130175;2022-12-08T10:35:51;6.40;99.90
8780;DHT22;62328;51.19929245;4.42130175;2022-12-08T10:38:21;6.30;99.90
8780;DHT22;62328;51.19929245;4.42130175;2022-12-08T10:40:51;6.30;99.90
8780;DHT22;62328;51.19929245;4.42130175;2022-12-08T10:43:21;6.40;99.90
8780;DHT22;62328;51.19929245;4.42130175;2022-12-08T10:45:50;6.30;99.90
8780;DHT22;62328;51.19929245;4.42130175;2022-12-08T10:48:19;6.40;99.90
8780;DHT22;62328;51.19929245;4.42130175;2022-12-08T10:50:54;6.40;99.90
8780;DHT22;62328;51.19929245;4.42130175;2022-12-08T10:53:23;6.40;99.90
8780;DHT22;62328;51.19929245;4.42130175;2022-12-08T10:55:52;6.40;99.90
8780;DHT22;62328;51.19929245;4.42130175;2022-12-08T10:58:27;6.40;99.90
8780;DHT22;62328;51.19929245;4.42130175;2022-12-08T11:00:58;6.40;99.90
8780;DHT22;62328;51.19929245;4.42130175;2022-12-08T11:03:28;6.40;99.90
8780;DHT22;62328;51.19929245;4.42130175;2022-12-08T11:05:59;6.40;99.90
8780;DHT22;62328;51.19929245;4.42130175;2022-12-08T11:08:45;6.40;99.90
8780;DHT22;62328;51.19929245;4.42130175;2022-12-08T11:11:12;6.40;99.90
8780;DHT22;62328;51.19929245;4.42130175;2022-12-08T11:13:40;6.40;99.90
8780;DHT22;62328;51.19929245;4.42130175;2022-12-08T11:16:09;6.40;99.90
8780;DHT22;62328;51.19929245;4.42130175;2022-12-08T11:18:39;6.30;99.90
8780;DHT22;62328;51.19929245;4.42130175;2022-12-08T11:21:10;6.30;99.90
8780;DHT22;62328;51.19929245;4.42130175;2022-12-08T11:23:40;6.30;99.90
8780;DHT22;62328;51.19929245;4.42130175;2022-12-08T11:26:17;6.30;99.90
8780;DHT22;62328;51.19929245;4.42130175;2022-12-08T11:28:44;6.30;99.90
8780;DHT22;62328;51.19929245;4.42130175;2022-12-08T11:31:20;6.40;99.90
8780;DHT22;62328;51.19929245;4.42130175;2022-12-08T11:33:50;6.40;99.90
8780;DHT22;62328;51.19929245;4.42130175;2022-12-08T11:36:22;6.50;99.90
8780;DHT22;62328;51.19929245;4.42130175;2022-12-08T11:38:54;6.50;99.90
8780;DHT22;62328;51.19929245;4.42130175;2022-12-08T11:41:25;6.60;99.90
8780;DHT22;62328;51.19929245;4.42130175;2022-12-08T11:43:57;6.50;99.90
8780;DHT22;62328;51.19929245;4.42130175;2022-12-08T11:46:31;6.50;99.90
8780;DHT22;62328;51.19929245;4.42130175;2022-12-08T11:49:02;6.50;99.90
8780;DHT22;62328;51.19929245;4.42130175;2022-12-08T11:51:32;6.50;99.90
8780;DHT22;62328;51.19929245;4.42130175;2022-12-08T11:54:11;6.60;99.90
8780;DHT22;62328;51.19929245;4.42130175;2022-12-08T11:56:41;6.60;99.90
8780;DHT22;62328;51.19929245;4.42130175;2022-12-08T11:59:17;6.60;99.90
8780;DHT22;62328;51.19929245;4.42130175;2022-12-08T12:01:46;6.60;99.90
8780;DHT22;62328;51.19929245;4.42130175;2022-12-08T12:04:19;6.60;99.90
8780;DHT22;62328;51.19929245;4.42130175;2022-12-08T12:07:26;6.60;99.90
8780;DHT22;62328;51.19929245;4.42130175;2022-12-08T12:10:16;6.60;99.90
8780;DHT22;62328;51.19929245;4.42130175;2022-12-08T12:13:00;6.50;99.90
8780;DHT22;62328;51.19929245;4.42130175;2022-12-08T12:15:58;6.50;99.90
8780;DHT22;62328;51.19929245;4.42130175;2022-12-08T12:18:37;6.50;99.90
8780;DHT22;62328;51.19929245;4.42130175;2022-12-08T12:21:10;6.50;99.90
8780;DHT22;62328;51.19929245;4.42130175;2022-12-08T12:23:41;6.50;99.90
8780;DHT22;62328;51.19929245;4.42130175;2022-12-08T12:26:16;6.50;99.90
8780;DHT22;62328;51.19929245;4.42130175;2022-12-08T12:28:47;6.60;99.90
8780;DHT22;62328;51.19929245;4.42130175;2022-12-08T12:31:20;6.60;99.90
8780;DHT22;62328;51.19929245;4.42130175;2022-12-08T12:33:48;6.60;99.90
8780;DHT22;62328;51.19929245;4.42130175;2022-12-08T12:36:17;6.50;99.90
8780;DHT22;62328;51.19929245;4.42130175;2022-12-08T12:38:47;6.50;99.90
8780;DHT22;62328;51.19929245;4.42130175;2022-12-08T12:41:33;6.40;99.90
8780;DHT22;62328;51.19929245;4.42130175;2022-12-08T12:47:07;6.10;99.90
8780;DHT22;62328;51.19929245;4.42130175;2022-12-08T12:50:03;5.90;99.90
8780;DHT22;62328;51.19929245;4.42130175;2022-12-08T12:52:36;5.80;99.90
8780;DHT22;62328;51.19929245;4.42130175;2022-12-08T12:58:32;5.60;99.90
8780;DHT22;62328;51.19929245;4.42130175;2022-12-08T13:04:06;5.50;99.90
8780;DHT22;62328;51.19929245;4.42130175;2022-12-08T13:06:38;5.40;99.90
8780;DHT22;62328;51.19929245;4.42130175;2022-12-08T13:09:14;5.40;99.90
8780;DHT22;62328;51.19929245;4.42130175;2022-12-08T13:11:47;5.40;99.90
8780;DHT22;62328;51.19929245;4.42130175;2022-12-08T13:14:34;5.40;99.90
8780;DHT22;62328;51.19929245;4.42130175;2022-12-08T13:17:06;5.40;99.90
8780;DHT22;62328;51.19929245;4.42130175;2022-12-08T13:19:35;5.30;99.90
8780;DHT22;62328;51.19929245;4.42130175;2022-12-08T13:28:24;5.30;99.90
8780;DHT22;62328;51.19929245;4.42130175;2022-12-08T13:30:55;5.30;99.90
8780;DHT22;62328;51.19929245;4.42130175;2022-12-08T13:33:25;5.30;99.90
8780;DHT22;62328;51.19929245;4.42130175;2022-12-08T13:36:00;5.40;99.90
8780;DHT22;62328;51.19929245;4.42130175;2022-12-08T13:38:31;5.40;99.90
8780;DHT22;62328;51.19929245;4.42130175;2022-12-08T13:41:02;5.50;99.90
8780;DHT22;62328;51.19929245;4.42130175;2022-12-08T13:43:39;5.40;99.90
8780;DHT22;62328;51.19929245;4.42130175;2022-12-08T13:46:08;5.40;99.90
8780;DHT22;62328;51.19929245;4.42130175;2022-12-08T13:48:45;5.50;99.90
8780;DHT22;62328;51.19929245;4.42130175;2022-12-08T13:51:16;5.50;99.90
8780;DHT22;62328;51.19929245;4.42130175;2022-12-08T13:53:52;5.50;99.90
8780;DHT22;62328;51.19929245;4.42130175;2022-12-08T13:56:21;5.50;99.90
8780;DHT22;62328;51.19929245;4.42130175;2022-12-08T13:58:48;5.60;99.90
8780;DHT22;62328;51.19929245;4.42130175;2022-12-08T14:01:19;5.60;99.90
8780;DHT22;62328;51.19929245;4.42130175;2022-12-08T14:03:49;5.50;99.90
8780;DHT22;62328;51.19929245;4.42130175;2022-12-08T14:06:18;5.50;99.90
8780;DHT22;62328;51.19929245;4.42130175;2022-12-08T14:08:50;5.50;99.90
8780;DHT22;62328;51.19929245;4.42130175;2022-12-08T14:11:24;5.60;99.90
8780;DHT22;62328;51.19929245;4.42130175;2022-12-08T14:14:03;5.60;99.90
8780;DHT22;62328;51.19929245;4.42130175;2022-12-08T14:16:36;5.50;99.90
8780;DHT22;62328;51.19929245;4.42130175;2022-12-08T14:19:15;5.60;99.90
8780;DHT22;62328;51.19929245;4.42130175;2022-12-08T14:21:46;5.60;99.90
8780;DHT22;62328;51.19929245;4.42130175;2022-12-08T14:24:13;5.60;99.90